Time;durP1;ratioP1;P1;durP2;ratioP2;P2;SDS_P1;SDS_P2;PMS_P1;PMS_P2;Temp;Humidity;BMP_temperature;BMP_pressure;BME280_temperature;BME280_humidity;BME280_pressure;Samples;Min_cycle;Max_cycle;Signal;HPM_P1;HPM_P2
2023/08/07 00:04:00;;;;;;;1.35;0.70;;;;;;;13.06;100.00;97761.72;15289965;19;20017;-54
2023/08/07 00:09:25;;;;;;;1.42;0.80;;;;;;;13.04;100.00;97761.13;15292646;19;20037;-52
2023/08/07 00:14:57;;;;;;;1.08;0.82;;;;;;;13.01;100.00;97766.03;15294754;19;20006;-55
2023/08/07 00:20:24;;;;;;;1.10;0.70;;;;;;;13.01;100.00;97766.91;15290340;19;20018;-56
2023/08/07 00:25:48;;;;;;;3.10;0.70;;;;;;;12.98;100.00;97761.88;15294822;19;20016;-55
2023/08/07 00:31:15;;;;;;;1.38;0.60;;;;;;;12.98;100.00;97761.03;15285269;19;20077;-56
2023/08/07 00:36:40;;;;;;;0.90;0.70;;;;;;;12.95;100.00;97762.25;15283871;19;20014;-54
2023/08/07 00:42:05;;;;;;;0.60;0.60;;;;;;;12.95;100.00;97762.25;15288838;19;20077;-58
2023/08/07 00:47:33;;;;;;;1.05;0.60;;;;;;;12.95;100.00;97762.25;15292120;19;20023;-58
2023/08/07 00:53:00;;;;;;;1.65;0.82;;;;;;;12.94;100.00;97774.94;15294049;19;20018;-56
2023/08/07 00:58:25;;;;;;;1.52;0.80;;;;;;;12.93;100.00;97769.75;15288405;19;20475;-58
2023/08/07 01:03:54;;;;;;;1.50;0.80;;;;;;;12.91;100.00;97775.31;15293024;19;20813;-57
2023/08/07 01:09:21;;;;;;;2.55;0.60;;;;;;;12.92;100.00;97782.41;15282929;19;20017;-57
2023/08/07 01:14:55;;;;;;;0.60;0.60;;;;;;;12.93;100.00;97775.16;15290270;19;20026;-61
2023/08/07 01:20:23;;;;;;;1.13;0.60;;;;;;;12.93;100.00;97775.97;15288196;19;20027;-59
2023/08/07 01:25:53;;;;;;;0.75;0.65;;;;;;;12.95;100.00;97776.63;15290468;19;20014;-62
2023/08/07 01:31:23;;;;;;;0.85;0.70;;;;;;;12.97;100.00;97781.00;15282390;19;20019;-60
2023/08/07 01:36:51;;;;;;;1.75;0.80;;;;;;;12.97;100.00;97786.41;15288612;19;20024;-60
2023/08/07 01:42:20;;;;;;;1.25;0.80;;;;;;;13.00;100.00;97776.03;15278503;19;20018;-57
2023/08/07 01:47:46;;;;;;;1.60;1.00;;;;;;;13.01;100.00;97780.41;15286427;19;20041;-60
2023/08/07 01:53:10;;;;;;;1.05;0.95;;;;;;;13.03;100.00;97785.63;15287705;19;20026;-61
2023/08/07 01:58:39;;;;;;;1.02;1.00;;;;;;;13.04;100.00;97790.00;15283533;19;20086;-59
2023/08/07 02:04:05;;;;;;;1.13;1.00;;;;;;;13.04;100.00;97782.75;15282983;19;20466;-60
2023/08/07 02:09:32;;;;;;;1.95;1.05;;;;;;;13.05;100.00;97783.56;15283903;19;20367;-59
2023/08/07 02:14:59;;;;;;;1.20;1.08;;;;;;;13.05;100.00;97799.78;15285522;19;20014;-59
2023/08/07 02:20:24;;;;;;;1.60;1.10;;;;;;;13.04;100.00;97779.19;15284362;19;20014;-59
2023/08/07 02:25:48;;;;;;;3.70;1.30;;;;;;;13.04;100.00;97777.34;15285461;19;20010;-57
2023/08/07 02:31:16;;;;;;;4.63;1.23;;;;;;;13.01;100.00;97755.22;15282800;19;20361;-60
2023/08/07 02:36:43;;;;;;;2.28;1.30;;;;;;;12.94;100.00;97761.41;15273246;19;20021;-61
2023/08/07 02:42:10;;;;;;;2.88;1.30;;;;;;;12.89;100.00;97763.84;15278100;19;20014;-59
2023/08/07 02:47:39;;;;;;;2.15;1.42;;;;;;;12.85;100.00;97769.84;15282593;19;20404;-62
2023/08/07 02:53:32;;;;;;;1.40;1.20;;;;;;;12.79;100.00;97779.56;15285127;19;20014;-61
2023/08/07 02:59:12;;;;;;;2.30;1.10;;;;;;;12.79;100.00;97796.63;15292733;19;20089;-57
2023/08/07 03:04:41;;;;;;;1.65;0.85;;;;;;;12.76;100.00;97786.19;15301564;19;20014;-57
2023/08/07 03:10:09;;;;;;;1.75;0.90;;;;;;;12.75;100.00;97798.03;15290291;19;20027;-59
2023/08/07 03:15:34;;;;;;;0.82;0.60;;;;;;;12.73;100.00;97781.16;15291749;19;20018;-59
2023/08/07 03:21:01;;;;;;;1.45;0.60;;;;;;;12.70;100.00;97770.72;15291855;19;20018;-52
2023/08/07 03:26:26;;;;;;;1.48;0.60;;;;;;;12.69;100.00;97747.44;15297524;19;20368;-57
2023/08/07 03:31:50;;;;;;;3.15;0.40;;;;;;;12.70;100.00;97738.28;15298512;19;20040;-56
2023/08/07 03:37:19;;;;;;;0.75;0.60;;;;;;;12.67;100.00;97754.06;15288699;19;20019;-56
2023/08/07 03:42:47;;;;;;;1.65;0.63;;;;;;;12.66;100.00;97728.06;15294386;19;20018;-57
2023/08/07 03:48:12;;;;;;;1.00;0.60;;;;;;;12.62;100.00;97733.00;15288971;19;20049;31
2023/08/07 03:53:39;;;;;;;1.85;0.50;;;;;;;12.64;100.00;97723.69;15280932;19;20018;-57
2023/08/07 03:59:05;;;;;;;1.48;0.70;;;;;;;12.62;100.00;97727.59;15288111;19;20017;-58
2023/08/07 04:04:29;;;;;;;1.63;0.60;;;;;;;12.62;100.00;97741.13;15289195;19;20422;-57
2023/08/07 04:09:56;;;;;;;1.08;0.63;;;;;;;12.56;100.00;97740.03;15290835;19;20026;-55
2023/08/07 04:15:21;;;;;;;1.25;0.60;;;;;;;12.56;100.00;97741.91;15284853;19;20094;-56
2023/08/07 04:20:52;;;;;;;1.38;0.50;;;;;;;12.55;100.00;97761.84;15281807;19;20386;-56
2023/08/07 04:26:19;;;;;;;0.95;0.60;;;;;;;12.57;100.00;97744.41;15293171;19;20086;-57
2023/08/07 04:31:44;;;;;;;1.50;0.52;;;;;;;12.54;100.00;97742.06;15290196;19;20748;-57
2023/08/07 04:37:08;;;;;;;0.50;0.50;;;;;;;12.44;100.00;97793.72;15291250;19;20024;-57
2023/08/07 04:42:38;;;;;;;0.93;0.60;;;;;;;12.42;100.00;97805.72;15291048;19;20021;-60
2023/08/07 04:48:04;;;;;;;3.05;0.70;;;;;;;12.42;100.00;97813.81;15288287;19;20359;-58
2023/08/07 04:53:35;;;;;;;0.95;0.40;;;;;;;12.44;100.00;97803.69;15289902;19;20022;-57
2023/08/07 04:59:04;;;;;;;0.88;0.60;;;;;;;12.42;100.00;97830.03;15290417;19;20014;-59
2023/08/07 05:04:28;;;;;;;1.42;0.50;;;;;;;12.39;100.00;97817.75;15294214;19;20090;-58
2023/08/07 05:09:54;;;;;;;1.35;0.60;;;;;;;12.37;100.00;97845.97;15290424;19;20022;-60
2023/08/07 05:15:21;;;;;;;0.98;0.40;;;;;;;12.37;100.00;97844.09;15293510;19;20018;-60
2023/08/07 05:20:46;;;;;;;1.42;0.43;;;;;;;12.37;100.00;97852.22;15282747;19;20017;-60
2023/08/07 05:26:10;;;;;;;1.02;0.50;;;;;;;12.35;100.00;97875.03;15283569;19;20028;-60
2023/08/07 05:31:37;;;;;;;1.85;0.60;;;;;;;12.37;100.00;97864.88;15284038;19;20014;-60
2023/08/07 05:37:02;;;;;;;1.23;0.40;;;;;;;12.34;100.00;97866.13;15290515;19;20021;-57
2023/08/07 05:42:27;;;;;;;1.27;0.32;;;;;;;12.33;100.00;97880.63;15288540;19;20010;-59
2023/08/07 05:47:54;;;;;;;3.50;0.38;;;;;;;12.37;100.00;97889.19;15288744;19;20042;-60
2023/08/07 05:53:25;;;;;;;0.70;0.40;;;;;;;12.41;100.00;97866.16;15282245;19;20480;-57
2023/08/07 05:58:50;;;;;;;0.80;0.40;;;;;;;12.41;100.00;97866.16;15280320;19;20082;-57
2023/08/07 06:04:17;;;;;;;0.77;0.40;;;;;;;12.48;100.00;97851.75;15291292;19;20018;-51
2023/08/07 06:09:42;;;;;;;0.68;0.30;;;;;;;12.53;100.00;97843.06;15287846;19;20021;-54
2023/08/07 06:15:06;;;;;;;0.45;0.30;;;;;;;12.58;100.00;97848.75;15288453;19;20070;-56
2023/08/07 06:20:36;;;;;;;0.57;0.38;;;;;;;12.63;100.00;97846.34;15282423;19;20085;-55
2023/08/07 06:26:03;;;;;;;0.60;0.30;;;;;;;12.71;100.00;97858.06;15283304;19;20034;-55
2023/08/07 06:31:29;;;;;;;0.75;0.28;;;;;;;12.81;100.00;97842.38;15291211;19;20050;-54
2023/08/07 06:36:56;;;;;;;0.75;0.30;;;;;;;12.87;100.00;97844.34;15304070;19;20014;-54
2023/08/07 06:42:21;;;;;;;0.65;0.20;;;;;;;12.89;100.00;97817.91;15297312;19;20026;-55
2023/08/07 06:47:45;;;;;;;0.60;0.20;;;;;;;12.94;100.00;97812.78;15302860;19;20082;-54
2023/08/07 06:53:19;;;;;;;0.82;0.20;;;;;;;12.99;100.00;97787.06;15298739;19;20451;-54
2023/08/07 06:58:44;;;;;;;0.90;0.28;;;;;;;13.12;100.00;97805.28;15294072;19;20037;-54
2023/08/07 07:04:08;;;;;;;0.50;0.20;;;;;;;13.17;100.00;97792.84;15297109;19;20031;-53
2023/08/07 07:09:35;;;;;;;1.23;0.40;;;;;;;13.16;100.00;97758.72;15299778;19;20015;-55
2023/08/07 07:15:02;;;;;;;0.65;0.20;;;;;;;13.19;100.00;97761.03;15300841;19;20383;-54
2023/08/07 07:20:29;;;;;;;0.73;0.20;;;;;;;13.23;100.00;97777.69;15293006;19;20011;-54
2023/08/07 07:25:57;;;;;;;0.30;0.20;;;;;;;13.28;100.00;97783.38;15299746;19;20031;-54
2023/08/07 07:31:22;;;;;;;0.85;0.30;;;;;;;13.37;100.00;97789.47;15299244;19;20093;-54
2023/08/07 07:36:46;;;;;;;0.30;0.10;;;;;;;13.58;100.00;97787.81;15294656;19;20018;-53
2023/08/07 07:42:14;;;;;;;0.15;0.13;;;;;;;13.61;100.00;97749.50;15294510;19;20360;-55
2023/08/07 07:47:38;;;;;;;0.28;0.13;;;;;;;13.63;100.00;97744.75;15299511;19;20078;-53
2023/08/07 07:53:03;;;;;;;0.25;0.20;;;;;;;13.64;100.00;97765.38;15294482;19;20023;-54
2023/08/07 07:58:30;;;;;;;0.30;0.30;;;;;;;13.71;100.00;97772.50;15291196;19;20021;-53
2023/08/07 08:03:55;;;;;;;1.08;0.20;;;;;;;13.77;100.00;97799.81;15298119;19;20041;-51
2023/08/07 08:09:19;;;;;;;0.20;0.20;;;;;;;13.79;100.00;97793.19;15296306;19;20021;-55
2023/08/07 08:14:47;;;;;;;0.38;0.20;;;;;;;13.80;100.00;97792.16;15298453;19;20525;-55
2023/08/07 08:20:18;;;;;;;0.50;0.20;;;;;;;13.83;100.00;97789.03;15291930;19;20027;-54
2023/08/07 08:25:43;;;;;;;0.63;0.13;;;;;;;13.96;100.00;97795.56;15294910;19;20034;-54
2023/08/07 08:31:10;;;;;;;0.65;0.20;;;;;;;14.22;100.00;97785.91;15288210;19;20027;-53
2023/08/07 08:36:35;;;;;;;0.28;0.10;;;;;;;14.44;100.00;97771.22;15288327;19;20078;-52
2023/08/07 08:42:00;;;;;;;0.05;0.05;;;;;;;14.67;100.00;97783.63;15289842;19;20078;-54
2023/08/07 08:47:29;;;;;;;0.88;0.10;;;;;;;14.77;100.00;97786.78;15293722;19;20078;-55
2023/08/07 08:53:02;;;;;;;0.10;0.10;;;;;;;14.90;100.00;97768.88;15290738;19;20089;-53
2023/08/07 08:58:30;;;;;;;1.48;0.20;;;;;;;15.01;100.00;97764.75;15290500;19;20042;-52
2023/08/07 09:03:58;;;;;;;0.15;0.10;;;;;;;14.96;100.00;97762.66;15290010;19;20014;-54
2023/08/07 09:09:24;;;;;;;0.10;0.10;;;;;;;14.96;100.00;97784.34;15285024;19;20041;-54
2023/08/07 09:14:53;;;;;;;0.60;0.10;;;;;;;14.88;100.00;97782.66;15294157;19;20006;-53
2023/08/07 09:20:22;;;;;;;0.20;0.05;;;;;;;14.90;100.00;97785.16;15290064;19;20013;-53
2023/08/07 09:25:47;;;;;;;0.25;0.10;;;;;;;14.98;100.00;97787.72;15291609;19;20070;-52
2023/08/07 09:31:17;;;;;;;0.17;0.17;;;;;;;15.04;100.00;97778.72;15287661;19;20031;-54
2023/08/07 09:36:45;;;;;;;0.10;0.10;;;;;;;15.22;100.00;97785.44;15284715;19;20032;-57
2023/08/07 09:42:16;;;;;;;0.10;0.10;;;;;;;15.18;100.00;97784.19;15280670;19;20363;-53
2023/08/07 09:47:40;;;;;;;0.40;0.00;;;;;;;15.12;100.00;97787.69;15288434;19;20031;-54
2023/08/07 09:53:14;;;;;;;0.85;0.10;;;;;;;15.04;100.00;97819.41;15288883;19;20019;-54
2023/08/07 09:58:39;;;;;;;0.60;0.10;;;;;;;15.03;100.00;97822.34;15286529;19;20020;-53
2023/08/07 10:04:04;;;;;;;0.00;0.00;;;;;;;15.05;100.00;97809.44;15290697;19;20032;-51
2023/08/07 10:09:34;;;;;;;0.08;0.08;;;;;;;15.12;100.00;97814.84;15284094;19;20014;-50
2023/08/07 10:15:00;;;;;;;0.15;0.10;;;;;;;15.33;100.00;97817.41;15279992;19;20024;-52
2023/08/07 10:20:27;;;;;;;0.75;0.00;;;;;;;15.53;100.00;97809.25;15282544;19;20593;-50
2023/08/07 10:25:56;;;;;;;0.30;0.10;;;;;;;15.78;100.00;97814.06;15289483;19;20017;-52
2023/08/07 10:31:23;;;;;;;0.10;0.00;;;;;;;15.82;100.00;97806.31;15285891;19;20011;-50
2023/08/07 10:36:48;;;;;;;1.00;0.10;;;;;;;15.25;100.00;97823.00;15288743;19;20018;-53
2023/08/07 10:42:16;;;;;;;0.00;0.00;;;;;;;14.94;100.00;97856.94;15277311;19;20014;-52
2023/08/07 10:47:43;;;;;;;0.05;0.00;;;;;;;14.51;100.00;97895.09;15277427;19;20347;-50
2023/08/07 10:53:15;;;;;;;0.13;0.10;;;;;;;14.40;100.00;97935.28;15281744;19;20017;-49
2023/08/07 10:58:44;;;;;;;0.52;0.05;;;;;;;14.83;100.00;97968.72;15280238;19;20021;-53
2023/08/07 11:04:14;;;;;;;0.10;0.05;;;;;;;15.20;100.00;97909.63;15286965;19;20383;-54
2023/08/07 11:09:39;;;;;;;1.75;0.15;;;;;;;15.56;100.00;97881.31;15284658;19;20042;-52
2023/08/07 11:15:07;;;;;;;0.38;0.00;;;;;;;14.68;100.00;97891.03;15282242;19;20100;-52
2023/08/07 11:20:32;;;;;;;1.65;0.15;;;;;;;14.67;100.00;97921.06;15289793;19;20021;-54
2023/08/07 11:25:57;;;;;;;0.50;0.17;;;;;;;15.06;100.00;97897.88;15300143;19;20377;-54
2023/08/07 11:31:27;;;;;;;0.13;0.10;;;;;;;15.45;100.00;97890.91;15296371;19;20020;-53
2023/08/07 11:36:55;;;;;;;0.73;0.10;;;;;;;15.72;100.00;97833.91;15299706;19;20002;-54
2023/08/07 11:42:20;;;;;;;0.10;0.00;;;;;;;15.63;100.00;97843.31;15293141;19;20022;-55
2023/08/07 11:47:48;;;;;;;0.25;0.10;;;;;;;15.68;100.00;97811.78;15293235;19;20018;-55
2023/08/07 11:53:13;;;;;;;1.75;0.20;;;;;;;16.07;100.00;97801.09;15285673;19;20029;-55
2023/08/07 11:58:45;;;;;;;0.43;0.15;;;;;;;16.18;100.00;97813.19;15294097;19;20448;-54
2023/08/07 12:04:15;;;;;;;0.00;0.00;;;;;;;16.43;100.00;97809.78;15297110;19;20365;-55
2023/08/07 12:09:40;;;;;;;2.25;0.20;;;;;;;16.79;100.00;97805.66;15293720;19;20014;-51
2023/08/07 12:15:07;;;;;;;0.13;0.10;;;;;;;16.68;100.00;97811.78;15297548;19;20017;-51
2023/08/07 12:20:36;;;;;;;0.43;0.10;;;;;;;16.71;100.00;97811.34;15290348;19;20014;-55
2023/08/07 12:26:01;;;;;;;0.10;0.10;;;;;;;16.42;100.00;97786.34;15287777;19;20077;-52
2023/08/07 12:31:26;;;;;;;0.40;0.10;;;;;;;16.36;100.00;97815.22;15291275;19;20023;-54
2023/08/07 12:36:54;;;;;;;1.85;0.32;;;;;;;16.16;100.00;97809.88;15294110;19;20014;-53
2023/08/07 12:42:18;;;;;;;0.22;0.17;;;;;;;15.97;100.00;97827.88;15289484;19;20785;-54
2023/08/07 12:47:43;;;;;;;0.90;0.40;;;;;;;15.13;100.00;97885.19;15292749;19;20017;-54
2023/08/07 12:53:17;;;;;;;0.80;0.43;;;;;;;14.69;100.00;97925.25;15285175;19;20042;-54
2023/08/07 12:58:42;;;;;;;0.38;0.30;;;;;;;14.84;100.00;97938.69;15282166;19;20094;-52
2023/08/07 13:04:08;;;;;;;1.40;0.30;;;;;;;15.21;100.00;97906.69;15292211;19;20018;-52
2023/08/07 13:09:36;;;;;;;1.00;0.20;;;;;;;15.77;100.00;97901.19;15290146;19;20859;-55
2023/08/07 13:15:00;;;;;;;0.30;0.15;;;;;;;16.16;100.00;97881.34;15292240;19;20006;-54
2023/08/07 13:20:26;;;;;;;0.88;0.20;;;;;;;16.36;100.00;97869.59;15284149;19;20074;-54
2023/08/07 13:25:54;;;;;;;0.52;0.30;;;;;;;16.25;100.00;97860.22;15286669;19;20011;-54
2023/08/07 13:31:19;;;;;;;0.22;0.20;;;;;;;16.16;100.00;97861.50;15284552;19;20013;-55
2023/08/07 13:36:45;;;;;;;1.08;0.20;;;;;;;15.89;100.00;97896.84;15290443;19;20006;-54
2023/08/07 13:42:13;;;;;;;0.52;0.10;;;;;;;15.61;100.00;97933.09;15285302;19;20371;-54
2023/08/07 13:47:38;;;;;;;0.43;0.10;;;;;;;15.49;100.00;97935.59;15291047;19;20021;-54
2023/08/07 13:53:09;;;;;;;0.08;0.08;;;;;;;15.50;100.00;97926.41;15288901;19;20011;-51
2023/08/07 13:58:37;;;;;;;0.68;0.20;;;;;;;15.74;100.00;97923.31;15284433;19;20094;-54
2023/08/07 14:04:01;;;;;;;0.28;0.10;;;;;;;16.21;100.00;97926.91;15287792;19;20830;-50
2023/08/07 14:09:26;;;;;;;0.40;0.10;;;;;;;16.35;100.00;97932.34;15287444;19;20466;-49
2023/08/07 14:14:54;;;;;;;1.88;0.20;;;;;;;16.83;100.00;97931.19;15287953;19;20018;-53
2023/08/07 14:20:19;;;;;;;1.20;0.20;;;;;;;16.81;100.00;97908.84;15284810;19;20482;-53
2023/08/07 14:25:44;;;;;;;1.20;0.40;;;;;;;16.92;100.00;97914.44;15283872;19;20014;-52
2023/08/07 14:31:12;;;;;;;0.77;0.20;;;;;;;16.90;100.00;97912.97;15279166;19;20105;-51
2023/08/07 14:36:36;;;;;;;0.32;0.20;;;;;;;16.69;100.00;97924.97;15287831;19;20042;-51
2023/08/07 14:42:01;;;;;;;3.30;0.60;;;;;;;14.70;100.00;98010.97;15281409;19;20010;-50
2023/08/07 14:47:28;;;;;;;3.45;0.85;;;;;;;13.84;100.00;98053.34;15285259;19;20038;-53
2023/08/07 14:52:53;;;;;;;1.48;0.80;;;;;;;13.50;100.00;98078.34;15291518;19;20577;-53
2023/08/07 14:58:17;;;;;;;2.67;1.02;;;;;;;13.64;100.00;98104.53;15293118;19;20489;-52
2023/08/07 15:03:45;;;;;;;4.40;0.90;;;;;;;13.69;100.00;98140.00;15294084;19;20466;-55
2023/08/07 15:09:09;;;;;;;2.00;0.82;;;;;;;13.76;100.00;98109.50;15297701;19;20029;-54
2023/08/07 15:14:34;;;;;;;1.65;0.77;;;;;;;13.70;100.00;98138.16;15300382;19;20090;-52
2023/08/07 15:20:01;;;;;;;5.13;1.15;;;;;;;12.84;100.00;98143.91;15293803;19;20355;-55
2023/08/07 15:25:26;;;;;;;4.18;1.30;;;;;;;12.45;100.00;98152.03;15298141;19;20014;-53
2023/08/07 15:30:56;;;;;;;2.38;1.20;;;;;;;12.58;100.00;98118.97;15289825;19;20022;-54
2023/08/07 15:36:24;;;;;;;3.15;1.20;;;;;;;12.72;100.00;98143.53;15291113;19;20406;-55
2023/08/07 15:41:48;;;;;;;5.15;1.60;;;;;;;13.02;100.00;98113.84;15292994;19;20053;-55
2023/08/07 15:47:15;;;;;;;5.13;1.40;;;;;;;13.08;100.00;98111.25;15297895;19;20018;-54
2023/08/07 15:52:49;;;;;;;3.53;1.15;;;;;;;13.20;100.00;98113.47;15293427;19;20020;-53
2023/08/07 15:58:14;;;;;;;4.28;1.10;;;;;;;13.30;100.00;98126.75;15296855;19;20025;-53
2023/08/07 16:03:39;;;;;;;2.90;1.10;;;;;;;13.43;100.00;98115.28;15285919;19;20018;-55
2023/08/07 16:09:06;;;;;;;3.55;1.17;;;;;;;13.55;100.00;98119.19;15286105;19;20029;-55
2023/08/07 16:14:30;;;;;;;4.40;1.38;;;;;;;13.76;100.00;98115.72;15294799;19;20014;-53
2023/08/07 16:19:56;;;;;;;5.18;1.20;;;;;;;14.43;100.00;98094.75;15279776;19;20029;-53
2023/08/07 16:25:23;;;;;;;2.80;1.10;;;;;;;14.79;100.00;98088.44;15293096;19;20074;-52
2023/08/07 16:30:48;;;;;;;2.13;1.10;;;;;;;15.07;100.00;98059.63;15293015;19;20015;-53
2023/08/07 16:36:13;;;;;;;3.42;1.20;;;;;;;15.40;100.00;98072.56;15227571;19;20010;-50
2023/08/07 16:41:44;;;;;;;4.72;1.30;;;;;;;15.61;100.00;98063.44;15283587;19;20014;-49
2023/08/07 16:47:09;;;;;;;2.55;1.00;;;;;;;15.86;100.00;98052.06;15292456;19;20456;-51
2023/08/07 16:52:34;;;;;;;2.05;0.90;;;;;;;15.94;100.00;98061.91;15285772;19;20016;-49
2023/08/07 16:58:02;;;;;;;2.40;1.10;;;;;;;16.09;100.00;98075.31;15290767;19;20018;-51
2023/08/07 17:03:27;;;;;;;3.20;1.02;;;;;;;16.21;100.00;98090.00;15288010;19;20014;-52
2023/08/07 17:08:52;;;;;;;2.15;1.00;;;;;;;16.22;100.00;98069.09;15286230;19;20029;-49
2023/08/07 17:14:20;;;;;;;2.97;1.17;;;;;;;15.94;100.00;98083.66;15281263;19;20022;-52
2023/08/07 17:19:45;;;;;;;2.85;1.00;;;;;;;15.99;100.00;98100.19;15285002;19;20020;-53
2023/08/07 17:25:11;;;;;;;2.92;0.90;;;;;;;16.06;100.00;98097.47;15289407;19;20382;-53
2023/08/07 17:30:37;;;;;;;2.45;1.13;;;;;;;16.08;100.00;98106.25;15285724;19;20015;-51
2023/08/07 17:36:02;;;;;;;2.85;1.13;;;;;;;16.24;100.00;98111.31;15290492;19;20081;-52
2023/08/07 17:41:26;;;;;;;3.50;0.93;;;;;;;16.21;100.00;98095.41;15282898;19;20017;-53
2023/08/07 17:46:54;;;;;;;2.85;1.00;;;;;;;16.08;100.00;98084.50;15282556;19;20011;-52
2023/08/07 17:52:29;;;;;;;2.95;0.93;;;;;;;16.00;100.00;98097.25;15284374;19;20102;-51
2023/08/07 17:57:55;;;;;;;1.52;0.98;;;;;;;15.85;100.00;98083.00;15285013;19;20010;-53
2023/08/07 18:03:24;;;;;;;2.67;1.00;;;;;;;15.76;100.00;98084.19;15284841;19;20442;-52
2023/08/07 18:08:48;;;;;;;4.30;0.90;;;;;;;15.61;100.00;98096.03;15286730;19;20021;-53
2023/08/07 18:14:14;;;;;;;1.95;0.77;;;;;;;15.53;100.00;98099.75;15281581;19;20471;-52
2023/08/07 18:19:41;;;;;;;2.72;0.85;;;;;;;15.30;100.00;98094.63;15275740;19;20014;-52
2023/08/07 18:25:07;;;;;;;1.63;0.85;;;;;;;15.16;100.00;98098.28;15285090;19;20017;-52
2023/08/07 18:30:33;;;;;;;2.65;0.98;;;;;;;15.01;100.00;98091.09;15282854;19;20015;-52
2023/08/07 18:36:00;;;;;;;1.85;0.90;;;;;;;14.81;100.00;98085.53;15285587;19;20025;-50
2023/08/07 18:41:25;;;;;;;1.85;0.93;;;;;;;14.74;100.00;98099.03;15282368;19;20011;-52
2023/08/07 18:46:50;;;;;;;2.45;0.80;;;;;;;14.64;100.00;98099.34;15282520;19;20054;-51
2023/08/07 18:52:18;;;;;;;2.95;1.02;;;;;;;14.51;100.00;98107.34;15276267;19;20033;-50
2023/08/07 18:57:43;;;;;;;2.17;0.80;;;;;;;14.40;100.00;98116.84;15283440;19;20090;-49
2023/08/07 19:03:07;;;;;;;2.58;0.90;;;;;;;14.44;100.00;98114.59;15283048;19;20026;-51
2023/08/07 19:08:38;;;;;;;3.30;0.90;;;;;;;14.35;100.00;98140.16;15282773;19;20026;-50
2023/08/07 19:14:02;;;;;;;1.67;0.82;;;;;;;14.32;100.00;98141.34;15285262;19;20018;-53
2023/08/07 19:19:27;;;;;;;0.95;0.73;;;;;;;14.22;100.00;98147.09;15277302;19;20021;-52
2023/08/07 19:24:54;;;;;;;1.95;0.80;;;;;;;14.03;100.00;98148.56;15274299;19;20449;-52
2023/08/07 19:30:20;;;;;;;1.98;0.75;;;;;;;13.91;100.00;98160.91;15281294;19;20026;-52
2023/08/07 19:35:48;;;;;;;1.50;0.80;;;;;;;13.79;100.00;98164.09;15282829;19;20018;-52
2023/08/07 19:41:16;;;;;;;2.42;0.90;;;;;;;13.74;100.00;98182.75;15289018;19;20493;-51
2023/08/07 19:46:40;;;;;;;3.13;0.90;;;;;;;13.71;100.00;98211.06;15296455;19;20028;-52
2023/08/07 19:52:13;;;;;;;2.45;1.00;;;;;;;13.62;100.00;98203.19;15285238;19;20018;-52
2023/08/07 19:57:40;;;;;;;5.25;1.10;;;;;;;13.49;100.00;98198.44;15288666;19;20014;-50
2023/08/07 20:03:06;;;;;;;2.45;0.90;;;;;;;13.32;100.00;98209.41;15290837;19;20021;-52
2023/08/07 20:08:31;;;;;;;2.08;0.75;;;;;;;13.15;100.00;98222.22;15292916;19;20380;-51
2023/08/07 20:13:59;;;;;;;1.98;1.10;;;;;;;12.98;100.00;98223.41;15296816;19;20039;-50
2023/08/07 20:19:24;;;;;;;4.88;1.23;;;;;;;12.80;100.00;98232.66;15291739;19;20025;-48
2023/08/07 20:24:49;;;;;;;2.63;1.13;;;;;;;12.78;100.00;98242.81;15282647;19;20025;-53
2023/08/07 20:30:16;;;;;;;3.33;1.10;;;;;;;12.76;100.00;98250.25;15290558;19;20035;-49
2023/08/07 20:35:41;;;;;;;3.05;0.90;;;;;;;12.73;100.00;98256.03;15292843;19;20117;-49
2023/08/07 20:41:05;;;;;;;2.92;1.10;;;;;;;12.77;100.00;98251.94;15289681;19;20011;-52
2023/08/07 20:46:33;;;;;;;3.00;1.20;;;;;;;12.91;100.00;98243.03;15289784;19;20022;-50
2023/08/07 20:51:57;;;;;;;2.53;0.90;;;;;;;13.00;100.00;98246.53;15289181;19;20022;-48
2023/08/07 20:57:22;;;;;;;2.28;1.10;;;;;;;13.04;100.00;98245.16;15261535;19;20014;-51
2023/08/07 21:02:49;;;;;;;1.27;0.95;;;;;;;13.03;100.00;98239.91;15287410;19;20028;-51
2023/08/07 21:08:15;;;;;;;1.50;0.80;;;;;;;13.00;100.00;98234.88;15290834;19;20011;-51
2023/08/07 21:13:39;;;;;;;4.47;1.25;;;;;;;12.91;100.00;98237.63;15290277;19;20014;-50
2023/08/07 21:19:07;;;;;;;2.72;0.95;;;;;;;12.86;100.00;98222.97;15285175;19;20018;-49
2023/08/07 21:24:32;;;;;;;3.85;1.00;;;;;;;12.74;100.00;98228.00;15285382;19;20018;-49
2023/08/07 21:29:57;;;;;;;2.88;1.20;;;;;;;12.67;100.00;98230.56;15278045;19;20111;-55
2023/08/07 21:35:25;;;;;;;1.85;0.90;;;;;;;12.64;100.00;98230.91;15288430;19;20031;-50
2023/08/07 21:40:50;;;;;;;1.77;0.93;;;;;;;12.56;100.00;98229.09;15286673;19;20029;-49
2023/08/07 21:46:14;;;;;;;2.25;1.08;;;;;;;12.53;100.00;98226.75;15288261;19;20032;-50
2023/08/07 21:51:44;;;;;;;3.25;1.10;;;;;;;12.45;100.00;98222.25;15285387;19;20018;-46
2023/08/07 21:57:09;;;;;;;2.38;1.10;;;;;;;12.50;100.00;98216.31;15288382;19;20018;-47
2023/08/07 22:02:34;;;;;;;2.85;0.98;;;;;;;12.61;100.00;98215.06;15273805;19;20018;-47
2023/08/07 22:08:02;;;;;;;2.17;1.02;;;;;;;12.61;100.00;98210.50;15288165;19;20015;-48
2023/08/07 22:13:27;;;;;;;2.47;1.00;;;;;;;12.63;100.00;98208.47;15288415;19;20018;-48
2023/08/07 22:18:51;;;;;;;2.92;1.17;;;;;;;12.64;100.00;98204.72;15282243;19;20015;-48
2023/08/07 22:24:19;;;;;;;3.85;1.08;;;;;;;12.64;100.00;98209.28;15284025;19;20018;-51
2023/08/07 22:29:44;;;;;;;2.58;0.82;;;;;;;12.61;100.00;98218.63;15279579;19;20462;-51
2023/08/07 22:35:08;;;;;;;2.55;0.98;;;;;;;12.59;100.00;98217.94;15279197;19;20018;-51
2023/08/07 22:40:35;;;;;;;2.25;1.00;;;;;;;12.50;100.00;98232.53;15282324;19;20752;-48
2023/08/07 22:46:00;;;;;;;2.30;1.10;;;;;;;12.31;100.00;98226.53;15281441;19;20578;-49
2023/08/07 22:51:24;;;;;;;1.92;1.00;;;;;;;12.17;100.00;98219.22;15281290;19;20026;-53
2023/08/07 22:56:52;;;;;;;3.75;1.00;;;;;;;12.13;100.00;98218.72;15285068;19;20023;-50
2023/08/07 23:02:16;;;;;;;3.17;1.00;;;;;;;12.04;100.00;98216.25;15276813;19;20050;-51
2023/08/07 23:07:44;;;;;;;2.60;0.98;;;;;;;12.01;100.00;98226.38;15278102;19;20018;-49
2023/08/07 23:13:12;;;;;;;4.72;1.20;;;;;;;12.00;100.00;98219.28;15288902;19;20019;-50
2023/08/07 23:18:37;;;;;;;4.18;0.90;;;;;;;12.05;100.00;98212.53;15297063;19;20118;-49
2023/08/07 23:24:01;;;;;;;2.60;1.08;;;;;;;12.07;100.00;98218.56;15297250;19;20014;-51
2023/08/07 23:29:29;;;;;;;2.45;1.00;;;;;;;12.04;100.00;98200.03;15295700;19;20028;-48
2023/08/07 23:34:53;;;;;;;1.63;1.00;;;;;;;12.01;100.00;98188.56;15293886;19;20010;-51
2023/08/07 23:40:20;;;;;;;1.77;0.80;;;;;;;11.98;100.00;98207.81;15290760;19;20010;-51
2023/08/07 23:45:47;;;;;;;2.22;0.95;;;;;;;11.92;100.00;98211.19;15292433;19;20110;-49
2023/08/07 23:51:12;;;;;;;2.88;1.00;;;;;;;11.84;100.00;98213.91;15293894;19;20014;-51
2023/08/07 23:56:36;;;;;;;1.73;0.90;;;;;;;11.77;100.00;98213.75;15297862;19;20015;-50
